sensor_id;sensor_type;location;lat;lon;timestamp;pressure;altitude;pressure_sealevel;temperature;humidity
29371;BME280;16357;52.188;7.838;2023-04-01T00:01:01;98608.94;;;13.05;67.15
29371;BME280;16357;52.188;7.838;2023-04-01T00:03:29;98603.81;;;13.04;67.09
29371;BME280;16357;52.188;7.838;2023-04-01T00:05:56;98600.25;;;13.03;67.04
29371;BME280;16357;52.188;7.838;2023-04-01T00:08:24;98604.63;;;13.04;67.17
29371;BME280;16357;52.188;7.838;2023-04-01T00:10:50;98596.53;;;13.04;67.04
29371;BME280;16357;52.188;7.838;2023-04-01T00:13:17;98607.31;;;13.04;67.18
29371;BME280;16357;52.188;7.838;2023-04-01T00:15:43;98607.31;;;13.04;67.11
29371;BME280;16357;52.188;7.838;2023-04-01T00:18:11;98606.50;;;13.04;67.24
29371;BME280;16357;52.188;7.838;2023-04-01T00:20:38;98611.03;;;13.03;67.05
29371;BME280;16357;52.188;7.838;2023-04-01T00:23:04;98597.56;;;13.03;67.24
29371;BME280;16357;52.188;7.838;2023-04-01T00:25:31;98598.63;;;13.02;67.26
29371;BME280;16357;52.188;7.838;2023-04-01T00:27:58;98596.19;;;13.01;67.31
29371;BME280;16357;52.188;7.838;2023-04-01T00:30:24;98600.72;;;13.00;67.21
29371;BME280;16357;52.188;7.838;2023-04-01T00:32:52;98589.13;;;13.00;67.37
29371;BME280;16357;52.188;7.838;2023-04-01T00:35:19;98597.00;;;13.01;67.46
29371;BME280;16357;52.188;7.838;2023-04-01T00:37:46;98595.34;;;13.00;67.56
29371;BME280;16357;52.188;7.838;2023-04-01T00:40:43;98590.81;;;13.01;67.40
29371;BME280;16357;52.188;7.838;2023-04-01T00:45:42;98593.72;;;12.99;67.13
29371;BME280;16357;52.188;7.838;2023-04-01T00:48:11;98600.38;;;12.96;67.35
29371;BME280;16357;52.188;7.838;2023-04-01T00:50:40;98591.47;;;12.96;67.41
29371;BME280;16357;52.188;7.838;2023-04-01T00:53:08;98601.41;;;12.95;67.59
29371;BME280;16357;52.188;7.838;2023-04-01T00:55:39;98585.47;;;12.94;67.43
29371;BME280;16357;52.188;7.838;2023-04-01T00:58:13;98601.41;;;12.95;67.37
29371;BME280;16357;52.188;7.838;2023-04-01T01:00:40;98593.56;;;12.94;67.57
29371;BME280;16357;52.188;7.838;2023-04-01T01:03:06;98589.22;;;12.93;67.49
29371;BME280;16357;52.188;7.838;2023-04-01T01:11:00;98591.69;;;12.94;67.44
29371;BME280;16357;52.188;7.838;2023-04-01T01:13:36;98589.81;;;12.95;67.57
29371;BME280;16357;52.188;7.838;2023-04-01T01:16:43;98592.50;;;12.95;67.38
29371;BME280;16357;52.188;7.838;2023-04-01T01:22:36;98579.28;;;12.93;67.18
29371;BME280;16357;52.188;7.838;2023-04-01T01:27:57;98582.19;;;12.92;67.21
29371;BME280;16357;52.188;7.838;2023-04-01T01:30:39;98572.47;;;12.91;67.38
29371;BME280;16357;52.188;7.838;2023-04-01T01:33:18;98575.16;;;12.91;67.36
29371;BME280;16357;52.188;7.838;2023-04-01T01:35:52;98585.94;;;12.91;67.37
29371;BME280;16357;52.188;7.838;2023-04-01T01:38:26;98582.66;;;12.89;67.56
29371;BME280;16357;52.188;7.838;2023-04-01T01:40:55;98581.81;;;12.88;67.69
29371;BME280;16357;52.188;7.838;2023-04-01T01:43:26;98587.22;;;12.88;67.51
29371;BME280;16357;52.188;7.838;2023-04-01T01:45:58;98581.81;;;12.88;67.48
29371;BME280;16357;52.188;7.838;2023-04-01T01:48:27;98582.66;;;12.89;67.61
29371;BME280;16357;52.188;7.838;2023-04-01T01:50:55;98577.25;;;12.89;67.71
29371;BME280;16357;52.188;7.838;2023-04-01T01:53:22;98588.03;;;12.89;67.76
29371;BME280;16357;52.188;7.838;2023-04-01T01:55:48;98578.88;;;12.90;67.62
29371;BME280;16357;52.188;7.838;2023-04-01T01:58:34;98581.59;;;12.90;67.48
29371;BME280;16357;52.188;7.838;2023-04-01T02:01:11;98588.63;;;12.91;67.36
29371;BME280;16357;52.188;7.838;2023-04-01T02:03:39;98586.97;;;12.90;67.50
29371;BME280;16357;52.188;7.838;2023-04-01T02:06:08;98583.47;;;12.89;67.71
29371;BME280;16357;52.188;7.838;2023-04-01T02:08:42;98576.19;;;12.90;67.67
29371;BME280;16357;52.188;7.838;2023-04-01T02:11:13;98588.03;;;12.89;67.63
29371;BME280;16357;52.188;7.838;2023-04-01T02:14:01;98582.66;;;12.89;67.46
29371;BME280;16357;52.188;7.838;2023-04-01T02:16:42;98590.72;;;12.89;67.48
29371;BME280;16357;52.188;7.838;2023-04-01T02:19:10;98589.09;;;12.88;67.65
29371;BME280;16357;52.188;7.838;2023-04-01T02:21:39;98583.91;;;12.86;67.79
29371;BME280;16357;52.188;7.838;2023-04-01T02:24:12;98582.03;;;12.87;67.51
29371;BME280;16357;52.188;7.838;2023-04-01T02:26:40;98580.63;;;12.84;67.68
29371;BME280;16357;52.188;7.838;2023-04-01T02:29:09;98582.28;;;12.85;67.70
29371;BME280;16357;52.188;7.838;2023-04-01T02:31:37;98583.09;;;12.86;67.74
29371;BME280;16357;52.188;7.838;2023-04-01T02:34:04;98580.41;;;12.86;67.82
29371;BME280;16357;52.188;7.838;2023-04-01T02:36:31;98584.13;;;12.85;67.61
29371;BME280;16357;52.188;7.838;2023-04-01T02:38:58;98583.09;;;12.86;67.70
29371;BME280;16357;52.188;7.838;2023-04-01T02:41:30;98579.59;;;12.85;67.54
29371;BME280;16357;52.188;7.838;2023-04-01T02:43:56;98585.19;;;12.84;67.81
29371;BME280;16357;52.188;7.838;2023-04-01T02:46:25;98579.81;;;12.84;67.65
29371;BME280;16357;52.188;7.838;2023-04-01T02:48:51;98578.97;;;12.83;67.73
29371;BME280;16357;52.188;7.838;2023-04-01T02:51:17;98579.81;;;12.84;67.78
29371;BME280;16357;52.188;7.838;2023-04-01T02:53:44;98577.09;;;12.84;67.84
29371;BME280;16357;52.188;7.838;2023-04-01T02:56:10;98576.91;;;12.85;67.78
29371;BME280;16357;52.188;7.838;2023-04-01T02:58:37;98577.72;;;12.86;67.65
29371;BME280;16357;52.188;7.838;2023-04-01T03:01:03;98583.91;;;12.86;67.70
29371;BME280;16357;52.188;7.838;2023-04-01T03:03:30;98583.09;;;12.86;67.66
29371;BME280;16357;52.188;7.838;2023-04-01T03:05:56;98586.00;;;12.84;67.62
29371;BME280;16357;52.188;7.838;2023-04-01T03:08:24;98586.00;;;12.84;67.58
29371;BME280;16357;52.188;7.838;2023-04-01T03:10:51;98579.81;;;12.84;67.83
29371;BME280;16357;52.188;7.838;2023-04-01T03:13:17;98583.56;;;12.83;67.80
29371;BME280;16357;52.188;7.838;2023-04-01T03:15:43;98584.38;;;12.83;67.86
29371;BME280;16357;52.188;7.838;2023-04-01T03:18:10;98582.50;;;12.84;67.83
29371;BME280;16357;52.188;7.838;2023-04-01T03:20:36;98573.59;;;12.83;68.11
29371;BME280;16357;52.188;7.838;2023-04-01T03:23:03;98573.59;;;12.83;67.81
29371;BME280;16357;52.188;7.838;2023-04-01T03:25:29;98578.97;;;12.83;67.78
29371;BME280;16357;52.188;7.838;2023-04-01T03:27:57;98578.16;;;12.83;67.80
29371;BME280;16357;52.188;7.838;2023-04-01T03:30:26;98582.72;;;12.82;67.93
29371;BME280;16357;52.188;7.838;2023-04-01T03:32:52;98579.81;;;12.84;67.83
29371;BME280;16357;52.188;7.838;2023-04-01T03:35:19;98577.09;;;12.84;67.93
29371;BME280;16357;52.188;7.838;2023-04-01T03:37:45;98577.34;;;12.82;67.84
29371;BME280;16357;52.188;7.838;2023-04-01T03:40:12;98583.56;;;12.83;67.96
29371;BME280;16357;52.188;7.838;2023-04-01T03:42:39;98577.34;;;12.82;67.87
29371;BME280;16357;52.188;7.838;2023-04-01T03:45:06;98587.25;;;12.82;67.74
29371;BME280;16357;52.188;7.838;2023-04-01T03:47:32;98580.25;;;12.81;67.82
29371;BME280;16357;52.188;7.838;2023-04-01T03:49:59;98589.38;;;12.80;67.91
29371;BME280;16357;52.188;7.838;2023-04-01T03:52:25;98586.09;;;12.78;67.83
29371;BME280;16357;52.188;7.838;2023-04-01T03:54:52;98592.28;;;12.78;67.85
29371;BME280;16357;52.188;7.838;2023-04-01T03:57:18;98589.00;;;12.76;68.07
29371;BME280;16357;52.188;7.838;2023-04-01T03:59:45;98590.03;;;12.75;67.99
29371;BME280;16357;52.188;7.838;2023-04-01T04:02:11;98591.91;;;12.74;68.01
29371;BME280;16357;52.188;7.838;2023-04-01T04:04:37;98591.91;;;12.74;67.88
29371;BME280;16357;52.188;7.838;2023-04-01T04:07:04;98596.69;;;12.72;67.90
29371;BME280;16357;52.188;7.838;2023-04-01T04:09:31;98591.53;;;12.71;67.91
29371;BME280;16357;52.188;7.838;2023-04-01T04:11:57;98596.09;;;12.70;67.84
29371;BME280;16357;52.188;7.838;2023-04-01T04:14:24;98594.47;;;12.69;68.15
29371;BME280;16357;52.188;7.838;2023-04-01T04:16:51;98591.16;;;12.67;68.03
29371;BME280;16357;52.188;7.838;2023-04-01T04:19:17;98596.75;;;12.66;68.18
29371;BME280;16357;52.188;7.838;2023-04-01T04:21:44;98604.00;;;12.65;68.39
29371;BME280;16357;52.188;7.838;2023-04-01T04:24:10;98602.38;;;12.64;68.27
29371;BME280;16357;52.188;7.838;2023-04-01T04:26:36;98606.94;;;12.64;68.33
29371;BME280;16357;52.188;7.838;2023-04-01T04:29:03;98607.75;;;12.64;68.31
29371;BME280;16357;52.188;7.838;2023-04-01T04:31:29;98606.94;;;12.64;68.24
29371;BME280;16357;52.188;7.838;2023-04-01T04:33:56;98607.75;;;12.64;68.48
29371;BME280;16357;52.188;7.838;2023-04-01T04:36:22;98609.63;;;12.64;68.51
29371;BME280;16357;52.188;7.838;2023-04-01T04:38:49;98613.94;;;12.65;68.45
29371;BME280;16357;52.188;7.838;2023-04-01T04:41:17;98617.44;;;12.65;68.35
29371;BME280;16357;52.188;7.838;2023-04-01T04:43:52;98618.28;;;12.66;68.31
29371;BME280;16357;52.188;7.838;2023-04-01T04:46:19;98619.31;;;12.65;68.31
29371;BME280;16357;52.188;7.838;2023-04-01T04:48:46;98619.09;;;12.66;68.42
29371;BME280;16357;52.188;7.838;2023-04-01T04:51:17;98620.16;;;12.65;68.49
29371;BME280;16357;52.188;7.838;2023-04-01T04:53:44;98627.41;;;12.65;68.48
29371;BME280;16357;52.188;7.838;2023-04-01T04:56:11;98622.22;;;12.63;68.44
29371;BME280;16357;52.188;7.838;2023-04-01T04:58:38;98627.59;;;12.63;68.43
29371;BME280;16357;52.188;7.838;2023-04-01T05:01:08;98631.97;;;12.64;68.47
29371;BME280;16357;52.188;7.838;2023-04-01T05:03:34;98626.56;;;12.64;68.74
29371;BME280;16357;52.188;7.838;2023-04-01T05:06:01;98630.91;;;12.65;68.64
29371;BME280;16357;52.188;7.838;2023-04-01T05:08:28;98630.91;;;12.65;68.67
29371;BME280;16357;52.188;7.838;2023-04-01T05:10:54;98632.53;;;12.66;68.69
29371;BME280;16357;52.188;7.838;2023-04-01T05:13:21;98630.69;;;12.67;68.77
29371;BME280;16357;52.188;7.838;2023-04-01T05:15:47;98630.44;;;12.68;68.53
29371;BME280;16357;52.188;7.838;2023-04-01T05:18:32;98626.75;;;12.69;68.56
29371;BME280;16357;52.188;7.838;2023-04-01T05:20:59;98630.44;;;12.68;68.50
29371;BME280;16357;52.188;7.838;2023-04-01T05:23:25;98635.84;;;12.68;68.55
29371;BME280;16357;52.188;7.838;2023-04-01T05:26:12;98635.63;;;12.70;68.45
29371;BME280;16357;52.188;7.838;2023-04-01T05:28:39;98646.59;;;12.68;68.50
29371;BME280;16357;52.188;7.838;2023-04-01T05:31:07;98650.34;;;12.67;68.41
29371;BME280;16357;52.188;7.838;2023-04-01T05:33:33;98644.16;;;12.67;68.49
29371;BME280;16357;52.188;7.838;2023-04-01T05:36:14;98651.16;;;12.68;68.65
29371;BME280;16357;52.188;7.838;2023-04-01T05:38:41;98649.53;;;12.67;68.60
29371;BME280;16357;52.188;7.838;2023-04-01T05:41:08;98653.03;;;12.67;68.62
29371;BME280;16357;52.188;7.838;2023-04-01T05:43:39;98656.34;;;12.69;68.54
29371;BME280;16357;52.188;7.838;2023-04-01T05:46:06;98656.34;;;12.69;68.69
29371;BME280;16357;52.188;7.838;2023-04-01T05:48:34;98656.09;;;12.71;68.82
29371;BME280;16357;52.188;7.838;2023-04-01T05:51:02;98663.97;;;12.72;68.79
29371;BME280;16357;52.188;7.838;2023-04-01T05:53:28;98660.22;;;12.73;68.75
29371;BME280;16357;52.188;7.838;2023-04-01T05:55:55;98663.50;;;12.76;68.90
29371;BME280;16357;52.188;7.838;2023-04-01T05:58:21;98662.25;;;12.78;68.69
29371;BME280;16357;52.188;7.838;2023-04-01T06:00:47;98666.56;;;12.79;68.56
29371;BME280;16357;52.188;7.838;2023-04-01T06:03:27;98669.88;;;12.81;68.60
29371;BME280;16357;52.188;7.838;2023-04-01T06:05:54;98674.22;;;12.82;68.62
29371;BME280;16357;52.188;7.838;2023-04-01T06:08:20;98677.72;;;12.83;68.51
29371;BME280;16357;52.188;7.838;2023-04-01T06:31:10;98697.09;;;12.91;67.98
29371;BME280;16357;52.188;7.838;2023-04-01T06:45:03;98710.34;;;12.93;68.03
29371;BME280;16357;52.188;7.838;2023-04-01T06:47:39;98709.28;;;12.94;68.13
29371;BME280;16357;52.188;7.838;2023-04-01T06:53:09;98720.66;;;12.96;68.21
29371;BME280;16357;52.188;7.838;2023-04-01T06:55:46;98717.97;;;12.96;68.32
29371;BME280;16357;52.188;7.838;2023-04-01T06:58:25;98721.25;;;12.98;68.38
29371;BME280;16357;52.188;7.838;2023-04-01T07:00:56;98724.78;;;12.99;68.21
29371;BME280;16357;52.188;7.838;2023-04-01T07:03:33;98726.41;;;13.00;68.10
29371;BME280;16357;52.188;7.838;2023-04-01T07:06:04;98728.28;;;12.99;68.21
29371;BME280;16357;52.188;7.838;2023-04-01T07:08:37;98730.75;;;13.01;68.41
29371;BME280;16357;52.188;7.838;2023-04-01T07:11:06;98731.59;;;13.01;68.51
29371;BME280;16357;52.188;7.838;2023-04-01T07:14:03;98735.69;;;13.04;68.52
29371;BME280;16357;52.188;7.838;2023-04-01T07:16:37;98738.97;;;13.06;68.60
29371;BME280;16357;52.188;7.838;2023-04-01T07:19:12;98734.81;;;13.10;68.57
29371;BME280;16357;52.188;7.838;2023-04-01T07:24:17;98743.66;;;13.17;68.73
29371;BME280;16357;52.188;7.838;2023-04-01T07:26:47;98742.94;;;13.22;68.83
29371;BME280;16357;52.188;7.838;2023-04-01T07:29:16;98746.88;;;13.26;68.90
29371;BME280;16357;52.188;7.838;2023-04-01T07:32:02;98751.16;;;13.33;68.97
29371;BME280;16357;52.188;7.838;2023-04-01T07:35:09;98748.38;;;13.40;68.86
29371;BME280;16357;52.188;7.838;2023-04-01T07:40:40;98758.81;;;13.55;68.81
29371;BME280;16357;52.188;7.838;2023-04-01T07:48:41;98767.94;;;13.72;68.34
29371;BME280;16357;52.188;7.838;2023-04-01T07:51:21;98765.59;;;13.76;68.36
29371;BME280;16357;52.188;7.838;2023-04-01T07:56:59;98765.91;;;13.86;67.97
29371;BME280;16357;52.188;7.838;2023-04-01T07:59:49;98770.63;;;13.91;68.03
29371;BME280;16357;52.188;7.838;2023-04-01T08:05:19;98771.72;;;14.01;67.61
29371;BME280;16357;52.188;7.838;2023-04-01T08:08:13;98778.28;;;14.05;67.54
29371;BME280;16357;52.188;7.838;2023-04-01T08:16:06;98791.03;;;14.17;67.51
29371;BME280;16357;52.188;7.838;2023-04-01T08:18:46;98786.59;;;14.22;67.48
29371;BME280;16357;52.188;7.838;2023-04-01T08:21:23;98787.56;;;14.28;67.49
29371;BME280;16357;52.188;7.838;2023-04-01T08:23:52;98793.09;;;14.33;67.62
29371;BME280;16357;52.188;7.838;2023-04-01T08:26:35;98799.22;;;14.40;67.42
29371;BME280;16357;52.188;7.838;2023-04-01T08:29:19;98802.03;;;14.45;67.39
29371;BME280;16357;52.188;7.838;2023-04-01T08:32:01;98800.31;;;14.51;67.18
29371;BME280;16357;52.188;7.838;2023-04-01T08:34:41;98806.69;;;14.57;67.30
29371;BME280;16357;52.188;7.838;2023-04-01T08:39:50;98805.88;;;14.68;67.30
29371;BME280;16357;52.188;7.838;2023-04-01T08:42:57;98808.50;;;14.75;66.88
29371;BME280;16357;52.188;7.838;2023-04-01T09:01:57;98824.50;;;15.00;66.69
29371;BME280;16357;52.188;7.838;2023-04-01T09:04:38;98827.34;;;15.05;66.69
29371;BME280;16357;52.188;7.838;2023-04-01T09:07:16;98830.75;;;15.12;66.88
29371;BME280;16357;52.188;7.838;2023-04-01T09:37:21;98854.38;;;15.99;63.61
29371;BME280;16357;52.188;7.838;2023-04-01T09:49:04;98864.59;;;15.97;63.60
29371;BME280;16357;52.188;7.838;2023-04-01T09:51:48;98864.00;;;15.95;63.90
29371;BME280;16357;52.188;7.838;2023-04-01T09:57:26;98866.34;;;16.03;64.86
29371;BME280;16357;52.188;7.838;2023-04-01T10:03:32;98866.78;;;16.23;64.10
29371;BME280;16357;52.188;7.838;2023-04-01T10:15:05;98877.88;;;16.51;63.53
29371;BME280;16357;52.188;7.838;2023-04-01T10:20:40;98876.28;;;16.66;62.94
29371;BME280;16357;52.188;7.838;2023-04-01T10:23:44;98881.69;;;16.78;63.06
29371;BME280;16357;52.188;7.838;2023-04-01T10:32:01;98885.59;;;17.16;61.82
29371;BME280;16357;52.188;7.838;2023-04-01T10:37:54;98880.84;;;17.40;61.17
29371;BME280;16357;52.188;7.838;2023-04-01T10:43:29;98889.78;;;17.58;60.50
29371;BME280;16357;52.188;7.838;2023-04-01T10:54:21;98900.78;;;17.68;59.04
29371;BME280;16357;52.188;7.838;2023-04-01T10:56:59;98902.34;;;17.64;58.31
29371;BME280;16357;52.188;7.838;2023-04-01T10:59:45;98911.47;;;17.58;58.49
29371;BME280;16357;52.188;7.838;2023-04-01T11:08:24;98914.34;;;17.34;58.63
29371;BME280;16357;52.188;7.838;2023-04-01T11:11:19;98912.06;;;17.26;59.03
29371;BME280;16357;52.188;7.838;2023-04-01T11:14:21;98912.19;;;17.19;59.64
29371;BME280;16357;52.188;7.838;2023-04-01T11:27:52;98930.34;;;17.19;60.56
29371;BME280;16357;52.188;7.838;2023-04-01T11:33:26;98937.03;;;17.28;60.06
29371;BME280;16357;52.188;7.838;2023-04-01T11:39:03;98937.84;;;17.28;59.51
29371;BME280;16357;52.188;7.838;2023-04-01T11:44:28;98945.38;;;17.26;59.75
29371;BME280;16357;52.188;7.838;2023-04-01T11:47:19;98941.38;;;17.29;59.98
29371;BME280;16357;52.188;7.838;2023-04-01T11:58:36;98949.53;;;17.63;60.44
29371;BME280;16357;52.188;7.838;2023-04-01T12:04:41;98960.31;;;17.91;59.64
29371;BME280;16357;52.188;7.838;2023-04-01T12:07:50;98966.47;;;18.04;58.84
29371;BME280;16357;52.188;7.838;2023-04-01T12:11:09;98966.59;;;18.14;58.59
29371;BME280;16357;52.188;7.838;2023-04-01T12:13:16;98965.13;;;18.23;57.79
29371;BME280;16357;52.188;7.838;2023-04-01T12:15:59;98967.91;;;18.28;58.21
29371;BME280;16357;52.188;7.838;2023-04-01T12:18:53;98978.56;;;18.35;57.85
29371;BME280;16357;52.188;7.838;2023-04-01T12:21:38;98975.09;;;18.39;57.78
29371;BME280;16357;52.188;7.838;2023-04-01T12:29:48;98976.56;;;18.47;56.89
29371;BME280;16357;52.188;7.838;2023-04-01T12:32:38;98982.00;;;18.47;55.81
29371;BME280;16357;52.188;7.838;2023-04-01T14:03:03;99107.72;;;13.19;70.06
29371;BME280;16357;52.188;7.838;2023-04-01T14:05:50;99116.56;;;13.39;69.25
29371;BME280;16357;52.188;7.838;2023-04-01T14:14:03;99123.34;;;13.87;68.04
29371;BME280;16357;52.188;7.838;2023-04-01T14:20:00;99133.81;;;14.09;67.95
29371;BME280;16357;52.188;7.838;2023-04-01T14:31:21;99148.72;;;14.36;66.85
29371;BME280;16357;52.188;7.838;2023-04-01T14:34:15;99144.75;;;14.39;66.81
29371;BME280;16357;52.188;7.838;2023-04-01T14:42:23;99161.94;;;14.44;66.46
29371;BME280;16357;52.188;7.838;2023-04-01T14:48:25;99164.41;;;14.46;66.01
29371;BME280;16357;52.188;7.838;2023-04-01T14:51:02;99166.25;;;14.45;66.01
29371;BME280;16357;52.188;7.838;2023-04-01T14:53:32;99168.38;;;14.43;66.12
29371;BME280;16357;52.188;7.838;2023-04-01T14:56:01;99176.47;;;14.43;66.34
29371;BME280;16357;52.188;7.838;2023-04-01T14:58:43;99181.88;;;14.43;66.43
29371;BME280;16357;52.188;7.838;2023-04-01T15:06:32;99188.09;;;14.44;66.08
29371;BME280;16357;52.188;7.838;2023-04-01T15:09:10;99191.00;;;14.42;65.72
29371;BME280;16357;52.188;7.838;2023-04-01T15:14:51;99195.63;;;14.35;65.77
29371;BME280;16357;52.188;7.838;2023-04-01T15:26:39;99219.41;;;14.20;66.13
29371;BME280;16357;52.188;7.838;2023-04-01T15:29:27;99224.00;;;14.13;66.30
29371;BME280;16357;52.188;7.838;2023-04-01T15:34:58;99237.72;;;14.04;66.33
29371;BME280;16357;52.188;7.838;2023-04-01T15:37:45;99248.13;;;14.01;66.35
29371;BME280;16357;52.188;7.838;2023-04-01T15:40:28;99256.88;;;13.96;66.19
29371;BME280;16357;52.188;7.838;2023-04-01T15:48:33;99263.53;;;13.87;67.18
29371;BME280;16357;52.188;7.838;2023-04-01T15:54:06;99271.63;;;13.87;67.53
29371;BME280;16357;52.188;7.838;2023-04-01T15:56:53;99272.22;;;13.89;67.39
29371;BME280;16357;52.188;7.838;2023-04-01T16:02:19;99299.19;;;13.89;67.05
29371;BME280;16357;52.188;7.838;2023-04-01T16:04:54;99298.81;;;13.86;67.09
29371;BME280;16357;52.188;7.838;2023-04-01T16:13:20;99318.97;;;13.70;66.58
29371;BME280;16357;52.188;7.838;2023-04-01T16:19:49;99322.94;;;13.54;66.34
29371;BME280;16357;52.188;7.838;2023-04-01T16:22:32;99332.28;;;13.45;65.81
29371;BME280;16357;52.188;7.838;2023-04-01T16:28:16;99358.59;;;13.29;66.66
29371;BME280;16357;52.188;7.838;2023-04-01T16:38:48;99372.47;;;13.06;66.11
29371;BME280;16357;52.188;7.838;2023-04-01T16:41:31;99383.03;;;13.01;66.33
29371;BME280;16357;52.188;7.838;2023-04-01T16:44:22;99390.88;;;12.96;66.08
29371;BME280;16357;52.188;7.838;2023-04-01T16:46:53;99380.91;;;12.90;66.22
29371;BME280;16357;52.188;7.838;2023-04-01T16:49:36;99401.22;;;12.86;66.21
29371;BME280;16357;52.188;7.838;2023-04-01T16:52:14;99416.09;;;12.82;66.42
29371;BME280;16357;52.188;7.838;2023-04-01T16:54:55;99405.34;;;12.75;66.15
29371;BME280;16357;52.188;7.838;2023-04-01T16:57:27;99424.78;;;12.70;66.31
29371;BME280;16357;52.188;7.838;2023-04-01T17:00:37;99422.91;;;12.64;66.30
29371;BME280;16357;52.188;7.838;2023-04-01T17:05:42;99441.69;;;12.58;66.17
29371;BME280;16357;52.188;7.838;2023-04-01T17:08:40;99440.84;;;12.50;66.27
29371;BME280;16357;52.188;7.838;2023-04-01T17:11:12;99444.56;;;12.49;66.57
29371;BME280;16357;52.188;7.838;2023-04-01T17:13:54;99454.28;;;12.44;66.29
29371;BME280;16357;52.188;7.838;2023-04-01T17:16:47;99454.22;;;12.37;66.55
29371;BME280;16357;52.188;7.838;2023-04-01T17:22:07;99474.28;;;12.28;66.50
29371;BME280;16357;52.188;7.838;2023-04-01T17:30:17;99498.56;;;12.13;66.80
29371;BME280;16357;52.188;7.838;2023-04-01T17:38:23;99530.97;;;11.98;66.70
29371;BME280;16357;52.188;7.838;2023-04-01T17:41:21;99534.22;;;11.94;66.64
29371;BME280;16357;52.188;7.838;2023-04-01T17:46:54;99551.47;;;11.84;66.72
29371;BME280;16357;52.188;7.838;2023-04-01T17:49:58;99554.53;;;11.81;67.05
29371;BME280;16357;52.188;7.838;2023-04-01T17:52:42;99571.06;;;11.78;66.75
29371;BME280;16357;52.188;7.838;2023-04-01T17:55:42;99572.28;;;11.76;66.84
29371;BME280;16357;52.188;7.838;2023-04-01T17:58:28;99569.16;;;11.72;66.82
29371;BME280;16357;52.188;7.838;2023-04-01T18:17:08;99624.81;;;11.42;67.17
29371;BME280;16357;52.188;7.838;2023-04-01T18:20:05;99645.03;;;11.38;66.87
29371;BME280;16357;52.188;7.838;2023-04-01T18:22:41;99636.72;;;11.33;66.76
29371;BME280;16357;52.188;7.838;2023-04-01T18:25:40;99657.94;;;11.28;66.79
29371;BME280;16357;52.188;7.838;2023-04-01T18:28:39;99665.88;;;11.21;66.83
29371;BME280;16357;52.188;7.838;2023-04-01T18:31:19;99675.53;;;11.15;66.75
29371;BME280;16357;52.188;7.838;2023-04-01T18:36:26;99691.28;;;11.04;66.50
29371;BME280;16357;52.188;7.838;2023-04-01T18:39:07;99692.84;;;10.98;66.41
29371;BME280;16357;52.188;7.838;2023-04-01T18:44:43;99711.06;;;10.88;66.73
29371;BME280;16357;52.188;7.838;2023-04-01T18:49:58;99715.66;;;10.79;66.71
29371;BME280;16357;52.188;7.838;2023-04-01T18:57:40;99729.16;;;10.71;67.13
29371;BME280;16357;52.188;7.838;2023-04-01T19:00:14;99749.97;;;10.69;67.04
29371;BME280;16357;52.188;7.838;2023-04-01T19:05:38;99742.13;;;10.67;67.02
29371;BME280;16357;52.188;7.838;2023-04-01T19:08:20;99764.56;;;10.66;67.41
29371;BME280;16357;52.188;7.838;2023-04-01T19:16:25;99795.47;;;10.62;66.92
29371;BME280;16357;52.188;7.838;2023-04-01T19:22:20;99794.50;;;10.55;66.79
29371;BME280;16357;52.188;7.838;2023-04-01T19:27:50;99808.19;;;10.45;66.66
29371;BME280;16357;52.188;7.838;2023-04-01T19:36:07;99816.44;;;10.36;67.03
29371;BME280;16357;52.188;7.838;2023-04-01T19:38:40;99817.44;;;10.35;67.27
29371;BME280;16357;52.188;7.838;2023-04-01T19:41:36;99825.69;;;10.33;67.11
29371;BME280;16357;52.188;7.838;2023-04-01T19:46:45;99836.22;;;10.26;67.13
29371;BME280;16357;52.188;7.838;2023-04-01T19:50:34;99842.97;;;10.22;67.18
29371;BME280;16357;52.188;7.838;2023-04-01T19:52:38;99844.16;;;10.20;67.04
29371;BME280;16357;52.188;7.838;2023-04-01T19:55:33;99847.19;;;10.17;67.36
29371;BME280;16357;52.188;7.838;2023-04-01T19:58:33;99857.41;;;10.13;67.37
29371;BME280;16357;52.188;7.838;2023-04-01T20:01:00;99866.63;;;10.10;66.64
29371;BME280;16357;52.188;7.838;2023-04-01T20:09:24;99900.72;;;9.94;66.39
29371;BME280;16357;52.188;7.838;2023-04-01T20:12:00;99880.63;;;9.89;66.39
29371;BME280;16357;52.188;7.838;2023-04-01T20:14:51;99903.41;;;9.85;66.33
29371;BME280;16357;52.188;7.838;2023-04-01T20:17:24;99900.75;;;9.85;66.33
29371;BME280;16357;52.188;7.838;2023-04-01T20:25:52;99924.00;;;9.77;66.48
29371;BME280;16357;52.188;7.838;2023-04-01T20:44:21;99968.06;;;9.58;66.58
29371;BME280;16357;52.188;7.838;2023-04-01T20:49:52;99970.63;;;9.51;66.44
29371;BME280;16357;52.188;7.838;2023-04-01T20:52:32;99991.50;;;9.48;66.46
29371;BME280;16357;52.188;7.838;2023-04-01T20:55:33;99983.00;;;9.44;66.15
29371;BME280;16357;52.188;7.838;2023-04-01T20:58:24;99987.00;;;9.40;66.21
29371;BME280;16357;52.188;7.838;2023-04-01T21:03:49;99999.53;;;9.31;66.26
29371;BME280;16357;52.188;7.838;2023-04-01T21:14:44;100049.91;;;9.19;66.65
29371;BME280;16357;52.188;7.838;2023-04-01T21:17:33;100044.53;;;9.19;66.36
29371;BME280;16357;52.188;7.838;2023-04-01T21:22:48;100046.19;;;9.12;65.95
29371;BME280;16357;52.188;7.838;2023-04-01T21:25:39;100049.88;;;9.11;66.24
29371;BME280;16357;52.188;7.838;2023-04-01T21:28:22;100073.44;;;9.08;66.28
29371;BME280;16357;52.188;7.838;2023-04-01T21:31:05;100075.44;;;9.06;66.43
29371;BME280;16357;52.188;7.838;2023-04-01T21:34:02;100073.94;;;9.03;66.53
29371;BME280;16357;52.188;7.838;2023-04-01T21:36:52;100083.97;;;9.01;66.34
29371;BME280;16357;52.188;7.838;2023-04-01T21:42:23;100090.63;;;8.97;66.45
29371;BME280;16357;52.188;7.838;2023-04-01T21:45:11;100105.16;;;8.94;66.06
29371;BME280;16357;52.188;7.838;2023-04-01T21:56:19;100126.50;;;8.78;66.29
29371;BME280;16357;52.188;7.838;2023-04-01T22:07:19;100153.34;;;8.68;66.37
29371;BME280;16357;52.188;7.838;2023-04-01T22:10:03;100169.38;;;8.68;66.35
29371;BME280;16357;52.188;7.838;2023-04-01T22:15:49;100176.06;;;8.64;66.20
29371;BME280;16357;52.188;7.838;2023-04-01T22:21:32;100176.22;;;8.63;66.21